createdAt,value
2023-01-01T00:01:27.355Z,339.02
2023-01-01T00:03:56.509Z,354.40
2023-01-01T00:06:24.441Z,354.63
2023-01-01T00:09:13.888Z,358.88
2023-01-01T00:11:40.579Z,359.02
2023-01-01T00:14:12.251Z,352.05
2023-01-01T00:16:39.505Z,374.90
2023-01-01T00:19:06.483Z,354.70
2023-01-01T00:21:33.229Z,365.88
2023-01-01T00:24:00.029Z,429.00
2023-01-01T00:26:31.058Z,431.20
2023-01-01T00:29:02.061Z,400.03
2023-01-01T00:31:29.019Z,371.85
2023-01-01T00:33:56.710Z,369.40
2023-01-01T00:36:27.240Z,375.20
2023-01-01T00:38:54.277Z,378.05
2023-01-01T00:41:21.645Z,413.05
2023-01-01T00:43:48.732Z,398.02
2023-01-01T00:46:15.487Z,404.33
2023-01-01T00:48:42.305Z,384.70
2023-01-01T00:51:09.496Z,372.25
2023-01-01T00:53:36.623Z,385.77
2023-01-01T00:56:04.255Z,374.55
2023-01-01T00:58:31.413Z,364.20
2023-01-01T01:00:58.254Z,367.27
2023-01-01T01:03:30.900Z,346.40
2023-01-01T01:06:10.995Z,344.92
2023-01-01T01:08:40.389Z,355.13
2023-01-01T01:11:12.929Z,343.92
2023-01-01T01:13:40.580Z,352.35
2023-01-01T01:16:27.646Z,365.92
2023-01-01T01:18:57.520Z,365.27
2023-01-01T01:21:24.737Z,352.98
2023-01-01T01:23:52.611Z,355.60
2023-01-01T01:26:24.796Z,343.27
2023-01-01T01:28:53.205Z,351.77
2023-01-01T01:31:22.280Z,355.50
2023-01-01T01:33:49.686Z,351.05
2023-01-01T01:36:17.775Z,337.05
2023-01-01T01:38:45.200Z,343.20
2023-01-01T01:41:27.347Z,339.58
2023-01-01T01:44:07.005Z,348.13
2023-01-01T01:46:42.966Z,360.90
2023-01-01T01:49:26.466Z,356.65
2023-01-01T01:51:54.160Z,348.25
2023-01-01T01:54:24.290Z,358.95
2023-01-01T01:57:12.275Z,362.27
2023-01-01T01:59:45.129Z,362.27
2023-01-01T02:02:22.682Z,359.13
2023-01-01T02:04:49.797Z,373.77
2023-01-01T02:07:17.949Z,377.08
2023-01-01T02:09:45.446Z,361.65
2023-01-01T02:12:12.251Z,380.98
2023-01-01T02:14:39.189Z,397.90
2023-01-01T02:17:14.421Z,413.58
2023-01-01T02:19:53.590Z,387.38
2023-01-01T02:23:02.338Z,369.23
2023-01-01T02:26:06.346Z,365.85
2023-01-01T02:28:57.854Z,352.63
2023-01-01T02:31:29.968Z,336.75
2023-01-01T02:34:01.838Z,315.77
2023-01-01T02:36:31.705Z,310.25
2023-01-01T02:39:01.344Z,313.65
2023-01-01T02:41:36.321Z,316.95
2023-01-01T02:46:34.824Z,349.40
2023-01-01T02:49:07.912Z,357.83
2023-01-01T02:52:08.042Z,359.98
2023-01-01T02:54:58.597Z,375.75
2023-01-01T02:57:35.559Z,367.77
2023-01-01T03:00:19.293Z,361.88
2023-01-01T03:03:14.582Z,364.80
2023-01-01T03:06:05.947Z,353.60
2023-01-01T03:08:47.518Z,343.98
2023-01-01T03:11:18.599Z,340.40
2023-01-01T03:13:51.835Z,315.35
2023-01-01T03:16:43.376Z,303.92
2023-01-01T03:19:22.103Z,280.63
2023-01-01T03:21:57.529Z,255.63
2023-01-01T03:24:38.139Z,236.30
2023-01-01T03:27:28.463Z,217.00
2023-01-01T03:29:59.585Z,203.32
2023-01-01T03:33:00.165Z,200.00
2023-01-01T03:35:54.129Z,169.13
2023-01-01T03:38:25.440Z,164.90
2023-01-01T03:40:56.536Z,154.15
2023-01-01T03:43:45.489Z,138.80
2023-01-01T03:46:14.028Z,142.88
2023-01-01T03:49:02.612Z,142.02
2023-01-01T03:51:42.037Z,149.23
2023-01-01T03:54:33.271Z,143.23
2023-01-01T03:57:15.563Z,143.63
2023-01-01T04:00:00.714Z,148.27
2023-01-01T04:02:55.073Z,145.40
2023-01-01T04:05:23.603Z,139.85
2023-01-01T04:10:18.215Z,144.32
2023-01-01T04:12:47.651Z,142.25
2023-01-01T04:15:15.197Z,143.23
2023-01-01T04:17:41.939Z,128.68
2023-01-01T04:20:09.643Z,130.55
2023-01-01T04:22:36.465Z,126.75
2023-01-01T04:25:03.716Z,122.88
2023-01-01T04:27:30.554Z,114.57
2023-01-01T04:29:57.306Z,115.25
2023-01-01T04:32:24.244Z,107.25
2023-01-01T04:34:50.952Z,104.13
2023-01-01T04:37:17.942Z,104.72
2023-01-01T04:39:44.654Z,96.90
2023-01-01T04:42:11.553Z,94.57
2023-01-01T04:44:38.222Z,91.35
2023-01-01T04:47:05.503Z,86.82
2023-01-01T04:49:32.364Z,85.60
2023-01-01T04:51:59.033Z,82.20
2023-01-01T04:54:25.857Z,82.78
2023-01-01T04:56:52.644Z,83.57
2023-01-01T04:59:19.366Z,79.05
2023-01-01T05:01:46.228Z,76.75
2023-01-01T05:04:15.255Z,78.53
2023-01-01T05:06:42.739Z,70.45
2023-01-01T05:09:10.290Z,67.15
2023-01-01T05:11:37.037Z,67.07
2023-01-01T05:14:04.250Z,65.57
2023-01-01T05:16:37.548Z,64.13
2023-01-01T05:19:05.172Z,64.13
2023-01-01T05:21:34.995Z,59.20
2023-01-01T05:24:04.607Z,58.83
2023-01-01T05:26:35.372Z,57.25
2023-01-01T05:29:02.327Z,60.00
2023-01-01T05:31:31.704Z,58.65
2023-01-01T05:36:38.594Z,54.38
2023-01-01T05:39:07.614Z,53.80
2023-01-01T05:41:37.233Z,52.63
2023-01-01T05:44:06.051Z,53.28
2023-01-01T05:46:33.370Z,52.90
2023-01-01T05:49:00.315Z,54.70
2023-01-01T05:51:28.805Z,51.28
2023-01-01T05:53:56.549Z,50.20
2023-01-01T05:56:24.159Z,55.38
2023-01-01T05:58:51.170Z,51.58
2023-01-01T06:01:26.592Z,49.72
2023-01-01T06:03:55.261Z,50.33
2023-01-01T06:06:25.270Z,49.13
2023-01-01T06:08:53.912Z,51.63
2023-01-01T06:11:21.219Z,49.30
2023-01-01T06:13:48.504Z,52.05
2023-01-01T06:16:15.398Z,55.22
2023-01-01T06:18:42.210Z,53.97
2023-01-01T06:21:14.908Z,52.75
2023-01-01T06:23:41.922Z,51.70
2023-01-01T06:26:17.839Z,54.97
2023-01-01T06:28:45.449Z,54.22
2023-01-01T06:31:14.842Z,49.20
2023-01-01T06:33:41.967Z,49.28
2023-01-01T06:36:11.006Z,52.70
2023-01-01T06:38:40.694Z,47.03
2023-01-01T06:41:16.748Z,52.35
2023-01-01T06:43:43.706Z,51.85
2023-01-01T06:46:10.344Z,51.55
2023-01-01T06:48:37.068Z,52.25
2023-01-01T06:51:13.203Z,47.72
2023-01-01T06:53:40.278Z,48.65
2023-01-01T06:56:07.417Z,48.13
2023-01-01T06:58:34.487Z,48.80
2023-01-01T07:01:11.161Z,51.00
2023-01-01T07:03:39.205Z,46.97
2023-01-01T07:06:07.561Z,48.47
2023-01-01T07:08:35.242Z,44.80
2023-01-01T07:11:02.502Z,47.88
2023-01-01T07:13:30.412Z,49.10
2023-01-01T07:15:57.472Z,44.75
2023-01-01T07:18:25.998Z,44.90
2023-01-01T07:20:58.533Z,44.33
2023-01-01T07:23:26.820Z,41.85
2023-01-01T07:25:54.693Z,41.22
2023-01-01T07:28:22.486Z,46.42
2023-01-01T07:30:49.848Z,42.78
2023-01-01T07:33:19.137Z,45.40
2023-01-01T07:35:46.193Z,43.40
2023-01-01T07:38:14.019Z,45.28
2023-01-01T07:40:41.913Z,44.60
2023-01-01T07:43:08.940Z,41.03
2023-01-01T07:45:36.011Z,43.15
2023-01-01T07:48:02.837Z,41.63
2023-01-01T07:50:32.367Z,43.03
2023-01-01T07:52:59.279Z,42.00
2023-01-01T07:55:26.950Z,45.78
2023-01-01T07:57:53.784Z,46.40
2023-01-01T08:00:21.908Z,51.08
2023-01-01T08:02:49.295Z,45.42
2023-01-01T08:05:19.909Z,54.85
2023-01-01T08:07:51.498Z,50.40
2023-01-01T08:10:20.287Z,49.25
2023-01-01T08:12:47.715Z,50.67
2023-01-01T08:15:15.294Z,48.00
2023-01-01T08:17:46.447Z,48.17
2023-01-01T08:20:13.929Z,46.10
2023-01-01T08:22:40.810Z,46.25
2023-01-01T08:25:08.423Z,47.00
2023-01-01T08:27:35.137Z,50.72
2023-01-01T08:30:01.961Z,47.17
2023-01-01T08:32:28.769Z,49.65
2023-01-01T08:34:55.489Z,49.75
2023-01-01T08:37:23.367Z,46.40
2023-01-01T08:39:51.726Z,49.65
2023-01-01T08:42:18.575Z,51.33
2023-01-01T08:44:45.661Z,49.92
2023-01-01T08:47:24.237Z,51.13
2023-01-01T08:49:51.476Z,45.92
2023-01-01T08:52:18.992Z,47.53
2023-01-01T08:54:45.840Z,49.28
2023-01-01T08:57:12.958Z,49.83
2023-01-01T08:59:39.783Z,50.30
2023-01-01T09:02:08.513Z,50.15
2023-01-01T09:04:35.425Z,50.25
2023-01-01T09:07:02.136Z,50.60
2023-01-01T09:09:31.720Z,52.65
2023-01-01T09:12:04.031Z,50.05
2023-01-01T09:14:31.104Z,52.53
2023-01-01T09:16:57.825Z,56.33
2023-01-01T09:19:24.672Z,52.55
2023-01-01T09:21:51.931Z,50.78
2023-01-01T09:24:18.806Z,57.85
2023-01-01T09:26:46.013Z,56.33
2023-01-01T09:29:12.770Z,60.13
2023-01-01T09:31:39.519Z,55.72
2023-01-01T09:34:06.310Z,64.65
2023-01-01T09:36:33.955Z,63.88
2023-01-01T09:39:01.287Z,61.40
2023-01-01T09:41:34.405Z,61.13
2023-01-01T09:44:28.418Z,61.03
2023-01-01T09:47:00.583Z,61.95
2023-01-01T09:49:43.168Z,64.00
2023-01-01T09:52:13.788Z,59.10
2023-01-01T09:54:42.882Z,65.88
2023-01-01T09:57:19.865Z,62.35
2023-01-01T09:59:47.103Z,70.15
2023-01-01T10:02:32.384Z,68.82
2023-01-01T10:05:02.912Z,70.40
2023-01-01T10:07:40.595Z,70.13
2023-01-01T10:10:40.243Z,66.10
2023-01-01T10:13:28.654Z,72.55
2023-01-01T10:16:24.195Z,70.88
2023-01-01T10:18:56.197Z,75.82
2023-01-01T10:21:30.887Z,77.25
2023-01-01T10:24:33.721Z,75.57
2023-01-01T10:27:04.192Z,69.15
2023-01-01T10:29:50.252Z,68.80
2023-01-01T10:32:27.930Z,69.50
2023-01-01T10:34:55.737Z,68.78
2023-01-01T10:37:22.877Z,73.25
2023-01-01T10:39:50.419Z,72.63
2023-01-01T10:42:17.369Z,74.28
2023-01-01T10:44:44.205Z,71.65
2023-01-01T10:47:25.602Z,72.13
2023-01-01T10:50:07.917Z,76.03
2023-01-01T10:52:38.592Z,77.57
2023-01-01T10:55:06.634Z,74.60
2023-01-01T10:57:40.655Z,73.10
2023-01-01T11:00:25.816Z,80.40
2023-01-01T11:03:20.934Z,73.03
2023-01-01T11:06:04.870Z,71.55
2023-01-01T11:08:34.931Z,72.32
2023-01-01T11:11:03.189Z,69.38
2023-01-01T11:13:31.357Z,70.43
2023-01-01T11:15:58.801Z,77.43
2023-01-01T11:18:36.276Z,75.50
2023-01-01T11:21:05.754Z,75.45
2023-01-01T11:23:35.810Z,79.45
2023-01-01T11:26:04.784Z,81.68
2023-01-01T11:28:34.912Z,77.63
2023-01-01T11:31:10.392Z,77.07
2023-01-01T11:33:45.206Z,69.85
2023-01-01T11:36:19.897Z,68.60
2023-01-01T11:38:51.371Z,76.10
2023-01-01T11:41:18.133Z,71.78
2023-01-01T11:43:47.112Z,70.95
2023-01-01T11:46:24.923Z,69.28
2023-01-01T11:48:54.178Z,72.63
2023-01-01T11:51:34.413Z,72.97
2023-01-01T11:54:38.258Z,69.18
2023-01-01T11:57:14.429Z,67.68
2023-01-01T12:00:14.890Z,68.05
2023-01-01T12:02:49.057Z,68.57
2023-01-01T12:05:34.688Z,79.18
2023-01-01T12:08:08.991Z,72.85
2023-01-01T12:10:57.773Z,77.45
2023-01-01T12:13:30.419Z,79.78
2023-01-01T12:16:12.244Z,73.80
2023-01-01T12:19:04.769Z,73.38
2023-01-01T12:21:34.903Z,70.25
2023-01-01T12:24:02.959Z,67.47
2023-01-01T12:26:54.393Z,72.43
2023-01-01T12:29:48.334Z,71.15
2023-01-01T12:32:39.868Z,68.30
2023-01-01T12:35:27.944Z,64.43
2023-01-01T12:37:57.897Z,72.30
2023-01-01T12:40:27.767Z,64.63
2023-01-01T12:43:01.783Z,70.38
2023-01-01T12:45:41.644Z,67.38
2023-01-01T12:48:37.928Z,62.15
2023-01-01T12:51:26.219Z,60.85
2023-01-01T12:54:01.736Z,62.10
2023-01-01T12:59:17.385Z,59.88
2023-01-01T13:01:45.357Z,49.80
2023-01-01T13:04:20.988Z,51.22
2023-01-01T13:07:11.721Z,50.15
2023-01-01T13:09:44.685Z,44.75
2023-01-01T13:12:32.926Z,48.05
2023-01-01T13:15:00.045Z,42.10
2023-01-01T13:17:29.985Z,41.35
2023-01-01T13:20:12.041Z,42.03
2023-01-01T13:22:42.874Z,39.40
2023-01-01T13:25:10.805Z,39.08
2023-01-01T13:28:04.641Z,35.13
2023-01-01T13:30:38.032Z,37.58
2023-01-01T13:33:35.092Z,37.88
2023-01-01T13:36:08.374Z,36.72
2023-01-01T13:38:54.960Z,37.67
2023-01-01T13:41:35.634Z,38.08
2023-01-01T13:44:05.169Z,32.88
2023-01-01T13:46:44.166Z,34.05
2023-01-01T13:50:02.565Z,36.25
2023-01-01T13:52:55.657Z,32.00
2023-01-01T13:55:55.797Z,32.25
2023-01-01T13:58:50.246Z,28.23
2023-01-01T14:01:38.355Z,30.98
2023-01-01T14:04:13.125Z,29.58
2023-01-01T14:06:43.729Z,28.40
2023-01-01T14:09:15.885Z,28.70
2023-01-01T14:11:42.820Z,27.02
2023-01-01T14:14:28.376Z,29.85
2023-01-01T14:17:01.812Z,29.23
2023-01-01T14:19:29.580Z,29.67
2023-01-01T14:21:57.062Z,30.85
2023-01-01T14:24:25.259Z,32.60
2023-01-01T14:26:54.828Z,37.70
2023-01-01T14:29:30.440Z,38.88
2023-01-01T14:34:32.360Z,36.45
2023-01-01T14:37:02.152Z,41.97
2023-01-01T14:39:34.202Z,42.58
2023-01-01T14:42:04.898Z,40.63
2023-01-01T14:44:37.142Z,47.40
2023-01-01T14:47:05.508Z,44.78
2023-01-01T14:49:38.946Z,43.97
2023-01-01T14:52:26.441Z,44.00
2023-01-01T14:54:56.217Z,42.50
2023-01-01T14:57:34.520Z,44.70
2023-01-01T15:00:24.782Z,44.88
2023-01-01T15:02:51.542Z,44.75
2023-01-01T15:05:34.743Z,41.97
2023-01-01T15:08:05.085Z,41.75
2023-01-01T15:10:35.663Z,40.40
2023-01-01T15:13:06.586Z,41.85
2023-01-01T15:15:44.586Z,43.28
2023-01-01T15:18:43.323Z,41.83
2023-01-01T15:21:45.603Z,43.00
2023-01-01T15:24:17.584Z,41.83
2023-01-01T15:26:50.810Z,36.33
2023-01-01T15:29:53.575Z,41.60
2023-01-01T15:32:29.240Z,34.58
2023-01-01T15:37:52.550Z,40.90
2023-01-01T15:40:19.335Z,36.77
2023-01-01T15:43:05.544Z,36.58
2023-01-01T15:45:35.812Z,31.48
2023-01-01T15:48:37.287Z,33.05
2023-01-01T15:51:12.027Z,32.03
2023-01-01T15:53:53.131Z,33.67
2023-01-01T15:56:22.442Z,34.50
2023-01-01T15:59:05.264Z,34.33
2023-01-01T16:01:38.528Z,34.22
2023-01-01T16:04:11.198Z,30.90
2023-01-01T16:06:49.499Z,34.50
2023-01-01T16:09:17.854Z,29.48
2023-01-01T16:11:45.034Z,30.85
2023-01-01T16:14:12.236Z,32.50
2023-01-01T16:16:43.101Z,33.97
2023-01-01T16:19:21.117Z,34.03
2023-01-01T16:21:47.851Z,30.95
2023-01-01T16:24:16.794Z,32.13
2023-01-01T16:26:43.651Z,30.42
2023-01-01T16:29:10.718Z,31.88
2023-01-01T16:31:37.955Z,29.08
2023-01-01T16:34:05.322Z,36.47
2023-01-01T16:36:32.271Z,29.17
2023-01-01T16:38:59.537Z,30.02
2023-01-01T16:41:28.858Z,31.58
2023-01-01T16:43:55.889Z,31.85
2023-01-01T16:46:22.799Z,32.47
2023-01-01T16:48:49.558Z,29.55
2023-01-01T16:51:23.056Z,32.45
2023-01-01T16:53:49.822Z,31.52
2023-01-01T16:56:17.021Z,30.48
2023-01-01T16:58:55.340Z,33.17
2023-01-01T17:01:25.120Z,32.50
2023-01-01T17:03:52.568Z,36.60
2023-01-01T17:06:19.673Z,31.52
2023-01-01T17:08:46.421Z,34.60
2023-01-01T17:11:18.389Z,32.08
2023-01-01T17:13:47.871Z,31.38
2023-01-01T17:16:25.919Z,31.50
2023-01-01T17:21:41.839Z,29.77
2023-01-01T17:24:08.964Z,30.92
2023-01-01T17:26:35.935Z,29.90
2023-01-01T17:29:03.418Z,28.67
2023-01-01T17:31:30.899Z,30.05
2023-01-01T17:33:57.755Z,29.75
2023-01-01T17:36:27.082Z,29.15
2023-01-01T17:38:54.592Z,30.00
2023-01-01T17:41:21.585Z,29.65
2023-01-01T17:43:50.800Z,28.92
2023-01-01T17:46:24.929Z,30.67
2023-01-01T17:48:52.445Z,30.65
2023-01-01T17:51:19.439Z,32.20
2023-01-01T17:53:46.745Z,30.65
2023-01-01T17:56:15.522Z,33.42
2023-01-01T17:58:44.331Z,32.58
2023-01-01T18:01:11.329Z,32.65
2023-01-01T18:03:40.270Z,36.13
2023-01-01T18:06:07.397Z,33.50
2023-01-01T18:08:34.184Z,32.65
2023-01-01T18:11:01.096Z,31.58
2023-01-01T18:13:27.867Z,35.08
2023-01-01T18:15:54.607Z,35.45
2023-01-01T18:18:21.363Z,34.85
2023-01-01T18:20:48.099Z,34.95
2023-01-01T18:23:14.969Z,32.33
2023-01-01T18:25:41.857Z,31.00
2023-01-01T18:28:10.418Z,31.35
2023-01-01T18:30:37.263Z,30.15
2023-01-01T18:33:03.981Z,29.33
2023-01-01T18:35:30.662Z,28.48
2023-01-01T18:37:57.557Z,31.05
2023-01-01T18:40:24.408Z,29.52
2023-01-01T18:43:01.948Z,26.13
2023-01-01T18:45:28.733Z,27.08
2023-01-01T18:47:55.559Z,30.30
2023-01-01T18:50:29.294Z,26.40
2023-01-01T18:53:18.790Z,26.70
2023-01-01T18:55:47.926Z,27.23
2023-01-01T18:58:18.635Z,25.70
2023-01-01T19:00:45.442Z,25.88
2023-01-01T19:03:36.055Z,26.25
2023-01-01T19:06:24.336Z,24.88
2023-01-01T19:08:53.046Z,24.90
2023-01-01T19:11:21.943Z,27.23
2023-01-01T19:13:51.056Z,28.23
2023-01-01T19:16:30.416Z,24.65
2023-01-01T19:19:12.557Z,27.60
2023-01-01T19:21:41.173Z,26.83
2023-01-01T19:24:22.268Z,30.90
2023-01-01T19:26:57.223Z,31.40
2023-01-01T19:29:25.347Z,31.83
2023-01-01T19:31:56.826Z,33.42
2023-01-01T19:34:24.623Z,34.42
2023-01-01T19:36:51.670Z,31.77
2023-01-01T19:39:18.692Z,33.97
2023-01-01T19:41:45.672Z,35.97
2023-01-01T19:44:12.362Z,33.53
2023-01-01T19:46:39.293Z,34.22
2023-01-01T19:49:06.091Z,32.95
2023-01-01T19:51:32.844Z,35.53
2023-01-01T19:53:59.577Z,40.13
2023-01-01T19:56:26.380Z,39.65
2023-01-01T19:58:53.120Z,40.33
2023-01-01T20:01:20.142Z,37.80
2023-01-01T20:03:56.470Z,39.47
2023-01-01T20:06:24.741Z,39.67
2023-01-01T20:08:52.088Z,39.60
2023-01-01T20:11:20.535Z,39.15
2023-01-01T20:13:47.470Z,37.53
2023-01-01T20:16:14.593Z,36.28
2023-01-01T20:18:41.368Z,41.65
2023-01-01T20:21:27.177Z,36.33
2023-01-01T20:23:55.069Z,35.97
2023-01-01T20:26:23.714Z,37.53
2023-01-01T20:29:09.400Z,38.03
2023-01-01T20:31:36.356Z,38.83
2023-01-01T20:34:03.381Z,38.03
2023-01-01T20:36:48.874Z,40.20
2023-01-01T20:39:15.548Z,40.67
2023-01-01T20:41:42.389Z,40.42
2023-01-01T20:44:09.147Z,40.90
2023-01-01T20:46:38.206Z,37.75
2023-01-01T20:49:05.144Z,38.80
2023-01-01T20:51:32.021Z,39.70
2023-01-01T20:53:58.823Z,37.40
2023-01-01T20:56:25.786Z,35.60
2023-01-01T20:58:57.583Z,35.38
2023-01-01T21:01:27.086Z,35.17
2023-01-01T21:03:54.313Z,35.10
2023-01-01T21:06:24.427Z,35.88
2023-01-01T21:08:52.201Z,34.47
2023-01-01T21:11:19.395Z,35.58
2023-01-01T21:13:47.059Z,34.80
2023-01-01T21:16:37.026Z,37.95
2023-01-01T21:19:08.212Z,34.85
2023-01-01T21:21:40.921Z,35.00
2023-01-01T21:24:23.376Z,35.25
2023-01-01T21:26:53.508Z,34.65
2023-01-01T21:29:22.511Z,37.42
2023-01-01T21:31:56.975Z,33.33
2023-01-01T21:34:36.756Z,37.35
2023-01-01T21:37:48.681Z,33.22
2023-01-01T21:40:30.930Z,35.33
2023-01-01T21:43:13.027Z,36.75
2023-01-01T21:45:49.070Z,35.83
2023-01-01T21:48:19.049Z,40.60
2023-01-01T21:50:47.676Z,40.00
2023-01-01T21:53:24.271Z,42.88
2023-01-01T21:55:53.556Z,45.28
2023-01-01T21:59:01.978Z,43.58
2023-01-01T22:01:35.952Z,42.85
2023-01-01T22:04:15.183Z,39.80
2023-01-01T22:06:48.621Z,45.30
2023-01-01T22:09:31.505Z,42.28
2023-01-01T22:12:06.507Z,41.28
2023-01-01T22:14:40.008Z,39.35
2023-01-01T22:17:45.047Z,40.60
2023-01-01T22:20:25.493Z,39.22
2023-01-01T22:22:52.227Z,40.20
2023-01-01T22:25:28.398Z,43.55
2023-01-01T22:27:55.597Z,36.15
2023-01-01T22:30:37.676Z,41.53
2023-01-01T22:33:17.002Z,43.17
2023-01-01T22:35:44.201Z,42.85
2023-01-01T22:38:18.020Z,41.88
2023-01-01T22:40:49.320Z,40.13
2023-01-01T22:43:19.179Z,39.88
2023-01-01T22:45:49.894Z,40.38
2023-01-01T22:48:46.286Z,39.40
2023-01-01T22:51:24.540Z,41.35
2023-01-01T22:53:51.512Z,43.05
2023-01-01T22:56:18.220Z,43.90
2023-01-01T22:58:45.144Z,44.80
2023-01-01T23:01:11.889Z,44.40
2023-01-01T23:03:38.736Z,45.53
2023-01-01T23:06:06.245Z,49.17
2023-01-01T23:08:33.032Z,47.88
2023-01-01T23:11:00.489Z,44.90
2023-01-01T23:13:45.987Z,51.63
2023-01-01T23:16:12.890Z,51.40
2023-01-01T23:18:39.736Z,50.65
2023-01-01T23:21:26.271Z,50.30
2023-01-01T23:23:55.524Z,48.03
2023-01-01T23:26:22.540Z,48.78
2023-01-01T23:28:49.447Z,53.67
2023-01-01T23:31:24.813Z,57.47
2023-01-01T23:33:53.506Z,54.80
2023-01-01T23:36:20.370Z,56.53
2023-01-01T23:38:47.187Z,54.47
2023-01-01T23:41:14.251Z,59.17
2023-01-01T23:43:43.560Z,55.45
2023-01-01T23:46:12.793Z,49.78
2023-01-01T23:48:40.611Z,55.83
2023-01-01T23:51:07.550Z,55.17
2023-01-01T23:53:34.317Z,55.55
2023-01-01T23:56:01.255Z,74.03
2023-01-01T23:58:28.089Z,66.05
